createdAt,value
2018-12-13T00:00:12.110Z,15.85
2018-12-13T00:05:17.394Z,12.50
2018-12-13T00:10:20.815Z,18.62
2018-12-13T00:15:30.445Z,21.07
2018-12-13T00:20:33.951Z,17.17
2018-12-13T00:25:38.011Z,20.72
2018-12-13T00:30:41.500Z,13.70
2018-12-13T00:35:44.794Z,13.20
2018-12-13T00:40:47.987Z,20.72
2018-12-13T00:45:51.211Z,32.38
2018-12-13T00:50:54.575Z,28.17
2018-12-13T00:55:57.928Z,25.85
2018-12-13T01:01:01.252Z,16.75
2018-12-13T01:06:05.134Z,16.65
2018-12-13T01:11:08.306Z,20.72
2018-12-13T01:21:31.566Z,12.18
2018-12-13T01:26:34.823Z,26.57
2018-12-13T01:31:38.249Z,17.50
2018-12-13T01:36:41.525Z,18.32
2018-12-13T01:41:44.811Z,29.18
2018-12-13T01:46:48.055Z,19.00
2018-12-13T01:51:51.357Z,15.75
2018-12-13T01:56:54.732Z,14.53
2018-12-13T02:01:57.933Z,22.27
2018-12-13T02:07:01.208Z,17.87
2018-12-13T02:12:04.524Z,23.05
2018-12-13T02:17:08.172Z,19.12
2018-12-13T02:22:11.534Z,14.63
2018-12-13T02:27:14.986Z,16.02
2018-12-13T02:32:18.472Z,12.80
2018-12-13T02:37:21.689Z,12.75
2018-12-13T02:42:24.880Z,14.50
2018-12-13T02:47:28.183Z,24.37
2018-12-13T02:52:31.539Z,27.32
2018-12-13T02:57:34.867Z,14.87
2018-12-13T03:02:38.068Z,19.98
2018-12-13T03:07:41.365Z,29.37
2018-12-13T03:12:44.756Z,29.07
2018-12-13T03:17:48.013Z,30.48
2018-12-13T03:22:51.263Z,24.98
2018-12-13T03:27:54.798Z,12.65
2018-12-13T03:32:57.994Z,27.50
2018-12-13T03:38:02.279Z,18.52
2018-12-13T03:43:05.626Z,14.50
2018-12-13T03:48:08.905Z,15.13
2018-12-13T03:53:12.150Z,20.50
2018-12-13T03:58:15.642Z,15.70
2018-12-13T04:03:25.583Z,12.23
2018-12-13T04:08:28.857Z,18.62
2018-12-13T04:13:32.574Z,25.50
2018-12-13T04:18:37.511Z,32.75
2018-12-13T04:23:43.117Z,28.52
2018-12-13T04:28:46.889Z,28.87
2018-12-13T04:33:50.200Z,33.33
2018-12-13T04:38:53.346Z,26.80
2018-12-13T04:43:56.715Z,28.60
2018-12-13T04:49:00.073Z,19.52
2018-12-13T04:54:03.452Z,17.98
2018-12-13T04:59:06.812Z,47.83
2018-12-13T05:04:10.155Z,51.95
2018-12-13T05:09:14.363Z,50.28
2018-12-13T05:14:18.720Z,50.03
2018-12-13T05:19:22.199Z,78.00
2018-12-13T05:24:25.355Z,91.90
2018-12-13T05:29:28.635Z,62.55
2018-12-13T05:34:31.833Z,53.02
2018-12-13T05:39:35.140Z,34.50
2018-12-13T05:44:38.477Z,42.85
2018-12-13T05:49:41.661Z,60.15
2018-12-13T05:54:44.897Z,66.50
2018-12-13T05:59:48.464Z,63.70
2018-12-13T06:04:51.665Z,32.60
2018-12-13T06:09:55.075Z,62.48
2018-12-13T06:14:58.475Z,39.60
2018-12-13T06:20:01.916Z,19.70
2018-12-13T06:25:05.522Z,19.57
2018-12-13T06:30:09.253Z,29.80
2018-12-13T06:35:12.659Z,34.83
2018-12-13T06:40:16.684Z,29.12
2018-12-13T06:45:19.972Z,22.70
2018-12-13T06:50:23.313Z,32.83
2018-12-13T06:55:26.622Z,28.30
2018-12-13T07:00:30.068Z,23.40
2018-12-13T07:05:33.714Z,26.10
2018-12-13T07:10:37.109Z,42.23
2018-12-13T07:15:40.437Z,57.20
2018-12-13T07:20:43.934Z,63.80
2018-12-13T07:25:47.187Z,72.50
2018-12-13T07:30:50.666Z,53.50
2018-12-13T07:35:54.065Z,25.05
2018-12-13T07:40:57.417Z,40.38
2018-12-13T07:46:00.661Z,110.08
2018-12-13T07:51:04.103Z,125.22
2018-12-13T07:56:07.502Z,33.80
2018-12-13T08:01:10.803Z,17.37
2018-12-13T08:06:14.048Z,19.37
2018-12-13T08:11:17.339Z,20.27
2018-12-13T08:16:20.597Z,34.27
2018-12-13T08:21:26.544Z,39.38
2018-12-13T08:26:29.758Z,20.43
2018-12-13T08:31:33.043Z,27.07
2018-12-13T08:36:36.567Z,30.45
2018-12-13T08:41:39.762Z,19.87
2018-12-13T08:46:43.075Z,21.35
2018-12-13T08:51:46.346Z,20.20
2018-12-13T08:56:49.778Z,19.92
2018-12-13T09:01:53.301Z,18.70
2018-12-13T09:06:57.104Z,16.20
2018-12-13T09:12:00.680Z,19.57
2018-12-13T09:17:03.954Z,16.50
2018-12-13T09:22:07.603Z,15.98
2018-12-13T09:27:10.872Z,14.78
2018-12-13T09:32:14.151Z,13.85
2018-12-13T09:37:17.380Z,12.43
2018-12-13T09:42:20.538Z,16.20
2018-12-13T09:47:24.143Z,25.12
2018-12-13T09:52:27.595Z,29.20
2018-12-13T09:57:34.568Z,24.80
2018-12-13T10:02:38.045Z,19.48
2018-12-13T10:07:41.527Z,15.35
2018-12-13T10:12:44.766Z,16.67
2018-12-13T10:17:48.085Z,20.55
2018-12-13T10:22:51.449Z,16.12
2018-12-13T10:27:54.908Z,14.68
2018-12-13T10:32:58.281Z,13.85
2018-12-13T10:38:01.588Z,16.20
2018-12-13T10:43:04.835Z,15.00
2018-12-13T10:48:09.073Z,17.23
2018-12-13T10:53:12.344Z,14.95
2018-12-13T10:58:15.624Z,18.75
2018-12-13T11:03:25.251Z,14.55
2018-12-13T11:08:28.498Z,12.45
2018-12-13T11:13:31.780Z,13.90
2018-12-13T11:18:35.083Z,17.12
2018-12-13T11:23:38.367Z,15.35
2018-12-13T11:29:56.730Z,13.78
2018-12-13T11:35:00.008Z,15.55
2018-12-13T11:40:03.288Z,18.12
2018-12-13T11:45:07.924Z,21.52
2018-12-13T11:50:11.415Z,16.90
2018-12-13T11:55:34.884Z,16.42
2018-12-13T12:00:38.310Z,15.13
2018-12-13T12:05:41.609Z,15.35
2018-12-13T12:10:45.044Z,16.07
2018-12-13T12:15:49.498Z,14.68
2018-12-13T12:20:52.767Z,15.08
2018-12-13T12:25:56.216Z,13.58
2018-12-13T12:30:59.637Z,12.35
2018-12-13T12:36:03.132Z,13.65
2018-12-13T12:41:07.567Z,17.52
2018-12-13T12:46:11.609Z,13.75
2018-12-13T12:51:14.942Z,18.02
2018-12-13T12:56:18.144Z,13.08
2018-12-13T13:01:21.508Z,17.37
2018-12-13T13:06:24.866Z,10.32
2018-12-13T13:11:28.275Z,8.63
2018-12-13T13:16:31.587Z,21.68
2018-12-13T13:21:34.908Z,16.25
2018-12-13T13:26:38.230Z,18.35
2018-12-13T13:31:41.570Z,17.25
2018-12-13T13:36:44.962Z,16.12
2018-12-13T13:41:48.182Z,21.00
2018-12-13T13:46:52.842Z,27.52
2018-12-13T13:51:56.407Z,24.45
2018-12-13T13:56:59.801Z,25.30
2018-12-13T14:02:03.209Z,16.00
2018-12-13T14:07:06.678Z,18.92
2018-12-13T14:12:09.885Z,22.05
2018-12-13T14:17:13.158Z,59.35
2018-12-13T14:22:16.510Z,157.70
2018-12-13T14:27:21.277Z,378.30
2018-12-13T14:32:24.522Z,151.60
2018-12-13T14:37:28.085Z,134.78
2018-12-13T14:42:31.346Z,219.40
2018-12-13T14:47:35.812Z,370.27
2018-12-13T14:52:39.112Z,237.32
2018-12-13T14:57:42.373Z,138.82
2018-12-13T15:02:46.203Z,142.13
2018-12-13T15:07:49.660Z,101.72
2018-12-13T15:12:53.123Z,127.90
2018-12-13T15:17:56.751Z,77.20
2018-12-13T15:23:00.268Z,54.27
2018-12-13T15:28:03.543Z,60.20
2018-12-13T15:33:06.801Z,58.85
2018-12-13T15:38:10.245Z,64.67
2018-12-13T15:43:13.772Z,128.90
2018-12-13T15:48:17.322Z,133.12
2018-12-13T15:53:20.770Z,60.50
2018-12-13T15:58:24.563Z,45.78
2018-12-13T16:03:28.496Z,44.35
2018-12-13T16:08:32.032Z,57.33
2018-12-13T16:13:35.609Z,116.10
2018-12-13T16:18:41.057Z,61.83
2018-12-13T16:23:44.481Z,80.25
2018-12-13T16:28:48.042Z,70.78
2018-12-13T16:33:51.617Z,126.70
2018-12-13T16:38:56.536Z,80.87
2018-12-13T16:44:00.782Z,99.13
2018-12-13T16:49:05.393Z,129.30
2018-12-13T16:54:09.343Z,107.40
2018-12-13T16:59:14.218Z,44.00
2018-12-13T17:04:19.694Z,73.60
2018-12-13T17:09:23.203Z,48.13
2018-12-13T17:14:26.753Z,116.10
2018-12-13T17:19:30.573Z,109.85
2018-12-13T17:24:34.304Z,41.13
2018-12-13T17:29:37.805Z,88.15
2018-12-13T17:34:41.592Z,57.90
2018-12-13T17:39:46.207Z,66.65
2018-12-13T17:44:50.496Z,104.25
2018-12-13T17:49:54.374Z,82.95
2018-12-13T17:54:58.202Z,83.20
2018-12-13T18:00:02.235Z,61.37
2018-12-13T18:05:07.828Z,35.38
2018-12-13T18:10:11.726Z,28.98
2018-12-13T18:15:15.134Z,81.22
2018-12-13T18:20:18.487Z,59.23
2018-12-13T18:25:22.867Z,43.95
2018-12-13T18:30:26.049Z,42.33
2018-12-13T18:35:29.534Z,71.72
2018-12-13T18:40:35.602Z,54.90
2018-12-13T18:45:38.445Z,56.37
2018-12-13T18:50:41.733Z,41.42
2018-12-13T18:55:45.051Z,60.28
2018-12-13T19:00:48.368Z,41.65
2018-12-13T19:05:51.819Z,50.50
2018-12-13T19:10:55.581Z,37.30
2018-12-13T19:16:01.295Z,29.23
2018-12-13T19:21:05.004Z,27.87
2018-12-13T19:26:09.548Z,58.52
2018-12-13T19:31:12.948Z,26.17
2018-12-13T19:36:17.213Z,22.52
2018-12-13T19:41:21.511Z,28.00
2018-12-13T19:46:25.839Z,19.75
2018-12-13T19:51:29.201Z,31.00
2018-12-13T19:56:32.377Z,37.83
2018-12-13T20:01:40.719Z,36.10
2018-12-13T20:06:48.751Z,59.48
2018-12-13T20:11:52.102Z,32.80
2018-12-13T20:16:55.455Z,34.92
2018-12-13T20:21:58.721Z,27.35
2018-12-13T20:27:02.155Z,32.67
2018-12-13T20:32:05.503Z,24.82
2018-12-13T20:37:08.701Z,36.53
2018-12-13T20:42:12.091Z,43.65
2018-12-13T20:47:15.366Z,37.98
2018-12-13T20:52:18.882Z,33.00
2018-12-13T20:57:22.336Z,24.32
2018-12-13T21:02:25.635Z,36.23
2018-12-13T21:07:34.651Z,26.73
2018-12-13T21:12:38.193Z,19.40
2018-12-13T21:17:41.625Z,19.02
2018-12-13T21:22:44.976Z,15.98
2018-12-13T21:27:48.325Z,16.25
2018-12-13T21:32:53.845Z,13.85
2018-12-13T21:37:58.350Z,14.00
2018-12-13T21:43:01.973Z,16.45
2018-12-13T21:48:05.360Z,23.92
2018-12-13T21:53:08.644Z,16.02
2018-12-13T21:58:12.106Z,21.35
2018-12-13T22:03:15.459Z,22.45
2018-12-13T22:08:18.644Z,12.00
2018-12-13T22:13:22.170Z,12.70
2018-12-13T22:18:25.459Z,10.72
2018-12-13T22:23:29.763Z,9.30
2018-12-13T22:28:33.070Z,12.85
2018-12-13T22:33:36.498Z,8.65
2018-12-13T22:38:39.796Z,17.60
2018-12-13T22:43:43.079Z,13.45
2018-12-13T22:48:46.405Z,11.80
2018-12-13T22:53:49.576Z,11.05
2018-12-13T22:58:53.140Z,8.65
2018-12-13T23:03:56.472Z,9.85
2018-12-13T23:08:59.727Z,18.17
2018-12-13T23:14:03.270Z,12.37
2018-12-13T23:19:06.525Z,23.07
2018-12-13T23:24:09.907Z,14.87
2018-12-13T23:29:13.019Z,7.25
2018-12-13T23:34:17.401Z,9.18
2018-12-13T23:39:20.906Z,12.68
2018-12-13T23:44:24.322Z,17.98
2018-12-13T23:49:27.489Z,13.38
2018-12-13T23:54:30.731Z,13.90
2018-12-13T23:59:34.025Z,17.87
